createdAt,value
2019-03-11T00:00:02.647Z,1.78
2019-03-11T00:01:14.317Z,1.79
2019-03-11T00:02:25.995Z,1.82
2019-03-11T00:03:37.682Z,1.87
2019-03-11T00:04:49.363Z,1.90
2019-03-11T00:06:00.034Z,1.95
2019-03-11T00:07:10.722Z,1.99
2019-03-11T00:08:21.475Z,2.01
2019-03-11T00:09:32.100Z,2.03
2019-03-11T00:10:43.091Z,2.06
2019-03-11T00:11:53.764Z,2.05
2019-03-11T00:13:04.432Z,2.07
2019-03-11T00:14:15.126Z,2.07
2019-03-11T00:15:25.808Z,2.07
2019-03-11T00:16:36.651Z,2.10
2019-03-11T00:17:47.337Z,2.11
2019-03-11T00:18:58.022Z,2.11
2019-03-11T00:20:08.705Z,2.12
2019-03-11T00:21:19.385Z,2.13
2019-03-11T00:22:30.074Z,2.13
2019-03-11T00:23:40.760Z,2.15
2019-03-11T00:24:51.442Z,2.16
2019-03-11T00:26:02.115Z,2.16
2019-03-11T00:27:12.799Z,2.17
2019-03-11T00:28:23.467Z,2.18
2019-03-11T00:29:34.152Z,2.20
2019-03-11T00:30:44.832Z,2.23
2019-03-11T00:31:55.507Z,2.25
2019-03-11T00:33:06.185Z,2.26
2019-03-11T00:34:16.864Z,2.28
2019-03-11T00:35:27.537Z,2.31
2019-03-11T00:36:38.222Z,2.34
2019-03-11T00:37:48.893Z,2.35
2019-03-11T00:38:59.580Z,2.36
2019-03-11T00:40:10.253Z,2.38
2019-03-11T00:41:20.936Z,2.40
2019-03-11T00:42:31.618Z,2.41
2019-03-11T00:43:42.289Z,2.44
2019-03-11T00:44:52.972Z,2.44
2019-03-11T00:46:03.653Z,2.46
2019-03-11T00:47:14.337Z,2.45
2019-03-11T00:48:25.015Z,2.46
2019-03-11T00:49:35.717Z,2.44
2019-03-11T00:50:46.391Z,2.42
2019-03-11T00:51:57.065Z,2.42
2019-03-11T00:53:07.739Z,2.40
2019-03-11T00:54:18.431Z,2.39
2019-03-11T00:55:29.106Z,2.41
2019-03-11T00:56:39.783Z,2.41
2019-03-11T00:57:50.956Z,2.44
2019-03-11T00:59:01.629Z,2.48
2019-03-11T01:00:12.315Z,2.49
2019-03-11T01:01:22.986Z,2.51
2019-03-11T01:02:33.662Z,2.52
2019-03-11T01:03:44.340Z,2.53
2019-03-11T01:04:55.026Z,2.55
2019-03-11T01:06:05.711Z,2.56
2019-03-11T01:07:16.387Z,2.56
2019-03-11T01:08:29.025Z,2.53
2019-03-11T01:09:37.754Z,2.53
2019-03-11T01:10:48.442Z,2.52
2019-03-11T01:11:59.119Z,2.52
2019-03-11T01:13:09.800Z,2.55
2019-03-11T01:14:20.695Z,2.59
2019-03-11T01:15:31.331Z,2.63
2019-03-11T01:16:42.009Z,2.66
2019-03-11T01:17:52.692Z,2.69
2019-03-11T01:19:03.365Z,2.69
2019-03-11T01:20:14.054Z,2.71
2019-03-11T01:21:24.724Z,2.73
2019-03-11T01:22:35.398Z,2.74
2019-03-11T01:23:46.073Z,2.74
2019-03-11T01:24:56.757Z,2.75
2019-03-11T01:26:07.445Z,2.76
2019-03-11T01:27:18.128Z,2.77
2019-03-11T01:28:28.816Z,2.77
2019-03-11T01:29:39.507Z,2.77
2019-03-11T01:30:50.182Z,2.76
2019-03-11T01:32:00.856Z,2.76
2019-03-11T01:33:11.551Z,2.76
2019-03-11T01:34:22.222Z,2.79
2019-03-11T01:35:32.913Z,2.83
2019-03-11T01:36:43.630Z,2.84
2019-03-11T01:37:54.264Z,2.85
2019-03-11T01:39:04.935Z,2.86
2019-03-11T01:40:15.617Z,2.86
2019-03-11T01:41:26.291Z,2.86
2019-03-11T01:42:36.974Z,2.86
2019-03-11T01:43:47.667Z,2.86
2019-03-11T01:44:58.354Z,2.85
2019-03-11T01:46:09.034Z,2.86
2019-03-11T01:47:19.731Z,2.87
2019-03-11T01:48:30.418Z,2.88
2019-03-11T01:49:41.093Z,2.87
2019-03-11T01:50:51.799Z,2.87
2019-03-11T01:52:02.541Z,2.85
2019-03-11T01:53:13.141Z,2.83
2019-03-11T01:54:23.823Z,2.81
2019-03-11T01:55:34.517Z,2.80
2019-03-11T01:56:45.183Z,2.79
2019-03-11T01:57:55.860Z,2.79
2019-03-11T01:59:06.535Z,2.78
2019-03-11T02:00:17.227Z,2.77
2019-03-11T02:01:28.421Z,2.76
2019-03-11T02:02:39.097Z,2.76
2019-03-11T02:03:49.785Z,2.76
2019-03-11T02:05:00.628Z,2.76
2019-03-11T02:06:11.317Z,2.77
2019-03-11T02:07:22.001Z,2.76
2019-03-11T02:08:32.687Z,2.75
2019-03-11T02:09:43.368Z,2.73
2019-03-11T02:10:54.051Z,2.71
2019-03-11T02:12:04.727Z,2.69
2019-03-11T02:13:15.403Z,2.68
2019-03-11T02:14:26.077Z,2.66
2019-03-11T02:15:36.761Z,2.63
2019-03-11T02:16:47.439Z,2.61
2019-03-11T02:17:58.115Z,2.58
2019-03-11T02:19:08.790Z,2.59
2019-03-11T02:20:19.471Z,2.58
2019-03-11T02:21:30.159Z,2.59
2019-03-11T02:22:40.847Z,2.57
2019-03-11T02:23:51.534Z,2.56
2019-03-11T02:25:03.206Z,2.56
2019-03-11T02:26:13.889Z,2.56
2019-03-11T02:27:24.570Z,2.55
2019-03-11T02:28:35.250Z,2.56
2019-03-11T02:29:45.929Z,2.58
2019-03-11T02:30:56.608Z,2.58
2019-03-11T02:32:07.281Z,2.60
2019-03-11T02:33:17.968Z,2.62
2019-03-11T02:34:28.637Z,2.64
2019-03-11T02:35:39.338Z,2.67
2019-03-11T02:36:50.030Z,2.70
2019-03-11T02:38:00.713Z,2.74
2019-03-11T02:39:11.391Z,2.79
2019-03-11T02:40:22.062Z,2.84
2019-03-11T02:41:33.743Z,2.91
2019-03-11T02:42:44.428Z,2.95
2019-03-11T02:43:55.102Z,3.02
2019-03-11T02:45:05.787Z,3.04
2019-03-11T02:46:16.957Z,3.07
2019-03-11T02:47:27.630Z,3.10
2019-03-11T02:48:38.311Z,3.12
2019-03-11T02:49:51.928Z,3.15
2019-03-11T02:51:02.622Z,3.17
2019-03-11T02:52:13.297Z,3.21
2019-03-11T02:53:24.481Z,3.23
2019-03-11T02:54:35.162Z,3.26
2019-03-11T02:55:45.837Z,3.30
2019-03-11T02:56:56.524Z,3.35
2019-03-11T02:58:07.203Z,3.38
2019-03-11T02:59:17.892Z,3.42
2019-03-11T03:00:28.583Z,3.47
2019-03-11T03:01:39.266Z,3.53
2019-03-11T03:02:49.956Z,3.58
2019-03-11T03:04:00.638Z,3.62
2019-03-11T03:05:11.315Z,3.66
2019-03-11T03:06:22.002Z,3.69
2019-03-11T03:07:32.686Z,3.72
2019-03-11T03:08:43.367Z,3.74
2019-03-11T03:09:54.540Z,3.75
2019-03-11T03:11:05.227Z,3.73
2019-03-11T03:12:15.916Z,3.64
2019-03-11T03:13:26.598Z,3.49
2019-03-11T03:14:37.294Z,3.31
2019-03-11T03:15:48.974Z,3.07
2019-03-11T03:17:00.661Z,2.82
2019-03-11T03:18:11.347Z,2.59
2019-03-11T03:19:22.023Z,2.35
2019-03-11T03:20:32.716Z,2.15
2019-03-11T03:21:43.403Z,2.02
2019-03-11T03:22:54.079Z,1.90
2019-03-11T03:24:04.750Z,1.81
2019-03-11T03:25:15.441Z,1.73
2019-03-11T03:26:26.122Z,1.68
2019-03-11T03:27:36.856Z,1.63
2019-03-11T03:28:47.633Z,1.57
2019-03-11T03:29:58.313Z,1.52
2019-03-11T03:31:08.997Z,1.49
2019-03-11T03:32:19.677Z,1.44
2019-03-11T03:33:30.343Z,1.40
2019-03-11T03:34:41.015Z,1.37
2019-03-11T03:35:51.692Z,1.33
2019-03-11T03:37:02.362Z,1.31
2019-03-11T03:38:13.041Z,1.28
2019-03-11T03:39:23.716Z,1.25
2019-03-11T03:40:34.383Z,1.24
2019-03-11T03:41:45.092Z,1.22
2019-03-11T03:42:55.840Z,1.22
2019-03-11T03:44:06.469Z,1.22
2019-03-11T03:45:17.072Z,1.19
2019-03-11T03:46:27.743Z,1.16
2019-03-11T03:47:38.426Z,1.14
2019-03-11T03:48:50.252Z,1.12
2019-03-11T03:50:00.748Z,1.14
2019-03-11T03:51:11.420Z,1.14
2019-03-11T03:52:22.085Z,1.13
2019-03-11T03:53:32.755Z,1.12
2019-03-11T03:54:43.917Z,1.13
2019-03-11T03:55:54.586Z,1.14
2019-03-11T03:57:05.259Z,1.13
2019-03-11T03:58:15.920Z,1.12
2019-03-11T03:59:26.604Z,1.12
2019-03-11T04:00:37.259Z,1.12
2019-03-11T04:01:47.929Z,1.14
2019-03-11T04:02:58.596Z,1.17
2019-03-11T04:04:09.256Z,1.18
2019-03-11T04:05:19.916Z,1.20
2019-03-11T04:06:31.625Z,1.20
2019-03-11T04:07:42.289Z,1.19
2019-03-11T04:08:52.952Z,1.19
2019-03-11T04:10:03.618Z,1.19
2019-03-11T04:11:14.289Z,1.20
2019-03-11T04:12:25.504Z,1.21
2019-03-11T04:13:36.128Z,1.21
2019-03-11T04:14:46.793Z,1.21
2019-03-11T04:15:57.615Z,1.21
2019-03-11T04:17:08.280Z,1.24
2019-03-11T04:18:18.947Z,1.26
2019-03-11T04:19:29.925Z,1.26
2019-03-11T04:20:40.283Z,1.26
2019-03-11T04:21:50.940Z,1.25
2019-03-11T04:23:01.601Z,1.22
2019-03-11T04:24:12.263Z,1.20
2019-03-11T04:25:22.915Z,1.15
2019-03-11T04:26:33.588Z,1.12
2019-03-11T04:27:44.244Z,1.10
2019-03-11T04:28:54.898Z,1.10
2019-03-11T04:30:05.551Z,1.08
2019-03-11T04:31:16.205Z,1.08
2019-03-11T04:32:26.857Z,1.08
2019-03-11T04:33:37.532Z,1.07
2019-03-11T04:34:48.188Z,1.07
2019-03-11T04:35:58.845Z,1.06
2019-03-11T04:37:09.524Z,1.06
2019-03-11T04:38:20.159Z,1.05
2019-03-11T04:39:30.821Z,1.04
2019-03-11T04:40:41.642Z,1.03
2019-03-11T04:41:52.794Z,1.03
2019-03-11T04:43:03.622Z,1.02
2019-03-11T04:44:14.287Z,1.01
2019-03-11T04:45:24.947Z,1.00
2019-03-11T04:46:35.606Z,0.99
2019-03-11T04:47:46.264Z,0.97
2019-03-11T04:48:56.922Z,0.94
2019-03-11T04:50:08.069Z,0.93
2019-03-11T04:51:18.731Z,0.93
2019-03-11T04:52:29.392Z,0.92
2019-03-11T04:53:40.050Z,0.89
2019-03-11T04:54:50.712Z,0.86
2019-03-11T04:56:01.373Z,0.82
2019-03-11T04:57:12.029Z,0.80
2019-03-11T04:58:22.689Z,0.77
2019-03-11T04:59:33.341Z,0.74
2019-03-11T05:00:44.002Z,0.71
2019-03-11T05:01:54.655Z,0.70
2019-03-11T05:03:05.309Z,0.68
2019-03-11T05:04:15.965Z,0.68
2019-03-11T05:05:26.626Z,0.69
2019-03-11T05:06:37.768Z,0.68
2019-03-11T05:07:48.904Z,0.67
2019-03-11T05:08:59.572Z,0.67
2019-03-11T05:10:10.239Z,0.64
2019-03-11T05:11:20.871Z,0.64
2019-03-11T05:12:31.530Z,0.63
2019-03-11T05:13:42.187Z,0.60
2019-03-11T05:14:52.839Z,0.61
2019-03-11T05:16:03.638Z,0.61
2019-03-11T05:17:14.316Z,0.63
2019-03-11T05:18:24.936Z,0.63
2019-03-11T05:19:35.579Z,0.63
2019-03-11T05:20:46.724Z,0.63
2019-03-11T05:21:57.368Z,0.64
2019-03-11T05:23:08.013Z,0.67
2019-03-11T05:24:18.671Z,0.69
2019-03-11T05:25:29.320Z,0.70
2019-03-11T05:26:39.983Z,0.70
2019-03-11T05:27:50.623Z,0.73
2019-03-11T05:29:01.274Z,0.73
2019-03-11T05:30:11.916Z,0.74
2019-03-11T05:31:22.569Z,0.74
2019-03-11T05:32:34.713Z,0.76
2019-03-11T05:33:45.359Z,0.79
2019-03-11T05:34:56.495Z,0.80
2019-03-11T05:36:07.209Z,0.83
2019-03-11T05:37:17.793Z,0.86
2019-03-11T05:38:28.437Z,0.85
2019-03-11T05:39:39.091Z,0.87
2019-03-11T05:40:50.745Z,0.89
2019-03-11T05:42:01.391Z,0.89
2019-03-11T05:43:12.534Z,0.88
2019-03-11T05:44:23.178Z,0.88
2019-03-11T05:45:34.823Z,0.88
2019-03-11T05:46:45.654Z,0.90
2019-03-11T05:47:56.790Z,0.92
2019-03-11T05:49:07.443Z,0.93
2019-03-11T05:50:18.088Z,0.93
2019-03-11T05:51:31.942Z,0.92
2019-03-11T05:52:39.886Z,0.90
2019-03-11T05:53:50.528Z,0.89
2019-03-11T05:55:01.183Z,0.88
2019-03-11T05:56:11.824Z,0.91
2019-03-11T05:57:22.486Z,0.92
2019-03-11T05:58:33.145Z,0.92
2019-03-11T05:59:43.799Z,0.92
2019-03-11T06:00:54.449Z,0.93
2019-03-11T06:02:05.635Z,0.94
2019-03-11T06:03:16.277Z,0.95
2019-03-11T06:04:27.417Z,0.96
2019-03-11T06:05:38.062Z,0.98
2019-03-11T06:06:48.709Z,0.99
2019-03-11T06:07:59.367Z,1.00
2019-03-11T06:09:10.015Z,0.99
2019-03-11T06:10:21.665Z,0.98
2019-03-11T06:11:32.309Z,0.99
2019-03-11T06:12:42.969Z,0.98
2019-03-11T06:13:53.622Z,0.99
2019-03-11T06:15:04.269Z,0.98
2019-03-11T06:16:15.406Z,0.98
2019-03-11T06:17:26.056Z,0.98
2019-03-11T06:18:37.718Z,0.98
2019-03-11T06:19:48.401Z,0.99
2019-03-11T06:20:59.019Z,0.99
2019-03-11T06:22:09.665Z,1.00
2019-03-11T06:23:20.320Z,1.01
2019-03-11T06:24:30.972Z,1.02
2019-03-11T06:25:41.629Z,1.05
2019-03-11T06:26:52.767Z,1.08
2019-03-11T06:28:03.422Z,1.09
2019-03-11T06:29:14.118Z,1.09
2019-03-11T06:30:24.771Z,1.10
2019-03-11T06:31:35.420Z,1.11
2019-03-11T06:32:46.094Z,1.12
2019-03-11T06:33:56.743Z,1.11
2019-03-11T06:35:07.394Z,1.09
2019-03-11T06:36:18.548Z,1.09
2019-03-11T06:37:29.200Z,1.09
2019-03-11T06:38:39.856Z,1.09
2019-03-11T06:39:51.006Z,1.09
2019-03-11T06:41:01.666Z,1.08
2019-03-11T06:42:12.314Z,1.06
2019-03-11T06:43:22.982Z,1.06
2019-03-11T06:44:33.616Z,1.05
2019-03-11T06:45:44.292Z,1.08
2019-03-11T06:46:54.939Z,1.10
2019-03-11T06:48:06.607Z,1.12
2019-03-11T06:49:17.758Z,1.11
2019-03-11T06:50:28.411Z,1.11
2019-03-11T06:51:39.076Z,1.09
2019-03-11T06:52:49.747Z,1.07
2019-03-11T06:54:00.375Z,1.04
2019-03-11T06:55:11.024Z,1.01
2019-03-11T06:56:21.688Z,1.00
2019-03-11T06:57:32.338Z,1.00
2019-03-11T06:58:42.994Z,1.00
2019-03-11T06:59:53.660Z,1.00
2019-03-11T07:01:05.313Z,1.02
2019-03-11T07:02:16.959Z,1.04
2019-03-11T07:03:27.617Z,1.08
2019-03-11T07:04:38.281Z,1.13
2019-03-11T07:05:48.941Z,1.18
2019-03-11T07:06:59.589Z,1.21
2019-03-11T07:08:10.246Z,1.23
2019-03-11T07:09:20.926Z,1.25
2019-03-11T07:10:31.553Z,1.26
2019-03-11T07:11:42.219Z,1.29
2019-03-11T07:12:52.875Z,1.32
2019-03-11T07:14:03.525Z,1.36
2019-03-11T07:15:14.182Z,1.35
2019-03-11T07:16:24.834Z,1.37
2019-03-11T07:17:35.512Z,1.37
2019-03-11T07:18:46.159Z,1.38
2019-03-11T07:19:57.318Z,1.39
2019-03-11T07:21:07.976Z,1.39
2019-03-11T07:22:18.636Z,1.39
2019-03-11T07:23:29.783Z,1.41
2019-03-11T07:24:40.452Z,1.41
2019-03-11T07:25:51.136Z,1.41
2019-03-11T07:27:01.798Z,1.40
2019-03-11T07:28:12.955Z,1.40
2019-03-11T07:29:23.607Z,1.39
2019-03-11T07:30:34.270Z,1.40
2019-03-11T07:31:44.929Z,1.41
2019-03-11T07:32:56.585Z,1.45
2019-03-11T07:34:07.242Z,1.50
2019-03-11T07:35:17.915Z,1.61
2019-03-11T07:36:28.582Z,1.77
2019-03-11T07:37:39.250Z,1.99
2019-03-11T07:38:49.909Z,2.17
2019-03-11T07:40:00.578Z,2.26
2019-03-11T07:41:11.258Z,2.30
2019-03-11T07:42:21.922Z,2.34
2019-03-11T07:43:32.597Z,2.37
2019-03-11T07:44:43.752Z,2.41
2019-03-11T07:45:54.443Z,2.43
2019-03-11T07:47:05.119Z,2.44
2019-03-11T07:48:15.785Z,2.44
2019-03-11T07:49:26.463Z,2.42
2019-03-11T07:50:38.132Z,2.40
2019-03-11T07:51:48.800Z,2.35
2019-03-11T07:52:59.633Z,2.31
2019-03-11T07:54:10.313Z,2.28
2019-03-11T07:55:20.990Z,2.25
2019-03-11T07:56:31.670Z,2.21
2019-03-11T07:57:42.344Z,2.17
2019-03-11T07:58:53.012Z,2.17
2019-03-11T08:00:03.693Z,2.17
2019-03-11T08:01:14.373Z,2.19
2019-03-11T08:02:25.364Z,2.25
2019-03-11T08:03:36.035Z,2.37
2019-03-11T08:04:46.708Z,2.50
2019-03-11T08:05:57.391Z,2.62
2019-03-11T08:07:09.069Z,2.73
2019-03-11T08:08:20.246Z,2.82
2019-03-11T08:09:37.939Z,2.87
2019-03-11T08:10:41.612Z,2.86
2019-03-11T08:11:52.300Z,2.85
2019-03-11T08:13:02.974Z,2.85
2019-03-11T08:14:13.663Z,2.88
2019-03-11T08:15:24.864Z,2.91
2019-03-11T08:16:35.518Z,2.92
2019-03-11T08:17:46.213Z,2.94
2019-03-11T08:18:56.896Z,2.96
2019-03-11T08:20:07.568Z,2.98
2019-03-11T08:21:18.252Z,3.00
2019-03-11T08:22:28.948Z,3.03
2019-03-11T08:23:39.642Z,3.02
2019-03-11T08:24:50.323Z,3.05
2019-03-11T08:26:01.018Z,3.10
2019-03-11T08:27:11.714Z,3.07
2019-03-11T08:28:23.391Z,3.02
2019-03-11T08:29:34.076Z,3.01
2019-03-11T08:30:44.767Z,3.04
2019-03-11T08:31:56.446Z,3.10
2019-03-11T08:33:07.138Z,3.19
2019-03-11T08:34:17.819Z,3.32
2019-03-11T08:35:28.503Z,3.45
2019-03-11T08:36:39.206Z,3.60
2019-03-11T08:37:49.907Z,3.79
2019-03-11T08:39:00.597Z,4.00
2019-03-11T08:40:11.299Z,4.22
2019-03-11T08:41:21.993Z,4.51
2019-03-11T08:42:33.712Z,4.84
2019-03-11T08:43:44.410Z,5.18
2019-03-11T08:44:55.151Z,5.51
2019-03-11T08:46:05.867Z,5.96
2019-03-11T08:47:16.589Z,6.41
2019-03-11T08:48:27.321Z,6.59
2019-03-11T08:49:38.053Z,6.66
2019-03-11T08:50:48.781Z,6.58
2019-03-11T08:51:59.514Z,6.39
2019-03-11T08:53:10.250Z,6.17
2019-03-11T08:54:20.985Z,5.93
2019-03-11T08:55:31.715Z,5.74
2019-03-11T08:56:42.445Z,5.57
2019-03-11T08:57:53.690Z,5.39
2019-03-11T08:59:04.427Z,5.30
2019-03-11T09:00:15.152Z,5.27
2019-03-11T09:01:25.888Z,5.26
2019-03-11T09:02:36.622Z,5.30
2019-03-11T09:03:48.064Z,5.32
2019-03-11T09:04:58.109Z,5.30
2019-03-11T09:06:08.843Z,5.31
2019-03-11T09:07:19.587Z,5.31
2019-03-11T09:08:30.336Z,5.28
2019-03-11T09:09:41.615Z,5.27
2019-03-11T09:10:52.358Z,5.23
2019-03-11T09:12:03.094Z,5.11
2019-03-11T09:13:13.842Z,5.01
2019-03-11T09:14:24.588Z,4.90
2019-03-11T09:15:35.326Z,4.80
2019-03-11T09:16:46.066Z,4.68
2019-03-11T09:17:56.799Z,4.58
2019-03-11T09:19:07.542Z,4.52
2019-03-11T09:20:18.278Z,4.48
2019-03-11T09:21:29.004Z,4.52
2019-03-11T09:22:39.733Z,4.52
2019-03-11T09:23:50.474Z,4.48
2019-03-11T09:25:01.201Z,4.45
2019-03-11T09:26:11.931Z,4.40
2019-03-11T09:27:22.665Z,4.47
2019-03-11T09:28:33.533Z,4.58
2019-03-11T09:29:44.136Z,4.71
2019-03-11T09:30:54.867Z,4.84
2019-03-11T09:32:05.615Z,5.17
2019-03-11T09:33:16.369Z,5.78
2019-03-11T09:34:28.145Z,7.03
2019-03-11T09:35:38.929Z,8.45
2019-03-11T09:36:49.715Z,10.22
2019-03-11T09:38:00.512Z,13.00
2019-03-11T09:39:11.348Z,15.98
2019-03-11T09:40:22.171Z,18.10
2019-03-11T09:41:33.020Z,20.29
2019-03-11T09:42:43.879Z,22.31
2019-03-11T09:43:54.752Z,23.74
2019-03-11T09:45:05.660Z,24.63
2019-03-11T09:46:16.578Z,24.68
2019-03-11T09:47:27.510Z,25.51
2019-03-11T09:48:38.945Z,25.65
2019-03-11T09:49:49.917Z,23.54
2019-03-11T09:51:00.875Z,20.80
2019-03-11T09:52:11.830Z,18.14
2019-03-11T09:53:22.789Z,15.83
2019-03-11T09:54:33.738Z,14.24
2019-03-11T09:55:44.689Z,12.69
2019-03-11T09:56:55.623Z,11.12
2019-03-11T09:58:06.540Z,9.87
2019-03-11T09:59:17.612Z,8.97
2019-03-11T10:00:28.528Z,8.20
2019-03-11T10:01:39.417Z,7.63
2019-03-11T10:02:52.912Z,7.63
2019-03-11T10:04:01.158Z,8.64
2019-03-11T10:05:12.042Z,10.36
2019-03-11T10:06:22.929Z,11.31
2019-03-11T10:07:33.819Z,12.53
2019-03-11T10:08:44.704Z,13.62
2019-03-11T10:09:55.620Z,15.02
2019-03-11T10:11:06.527Z,17.09
2019-03-11T10:12:17.440Z,20.34
2019-03-11T10:13:28.372Z,23.90
2019-03-11T10:14:39.323Z,26.74
2019-03-11T10:15:50.325Z,29.00
2019-03-11T10:17:01.302Z,30.66
2019-03-11T10:18:12.312Z,31.70
2019-03-11T10:19:23.366Z,32.51
2019-03-11T10:20:34.423Z,33.19
2019-03-11T10:21:46.516Z,33.84
2019-03-11T10:22:57.609Z,33.97
2019-03-11T10:24:08.726Z,34.27
2019-03-11T10:25:19.860Z,34.28
2019-03-11T10:26:31.012Z,32.33
2019-03-11T10:27:42.168Z,29.18
2019-03-11T10:28:53.334Z,27.53
2019-03-11T10:30:04.499Z,27.19
2019-03-11T10:31:15.693Z,28.55
2019-03-11T10:32:26.875Z,29.37
2019-03-11T10:33:38.062Z,29.45
2019-03-11T10:34:49.268Z,30.09
2019-03-11T10:36:00.469Z,31.07
2019-03-11T10:37:11.690Z,30.22
2019-03-11T10:38:22.899Z,27.88
2019-03-11T10:39:34.597Z,24.41
2019-03-11T10:40:45.782Z,21.17
2019-03-11T10:41:56.950Z,18.56
2019-03-11T10:43:08.110Z,16.65
2019-03-11T10:44:19.717Z,15.90
2019-03-11T10:45:32.174Z,17.88
2019-03-11T10:46:41.949Z,20.58
2019-03-11T10:47:53.627Z,23.09
2019-03-11T10:49:04.745Z,25.61
2019-03-11T10:50:15.893Z,27.91
2019-03-11T10:51:27.031Z,29.19
2019-03-11T10:52:38.187Z,28.94
2019-03-11T10:53:49.348Z,28.03
2019-03-11T10:55:00.511Z,28.03
2019-03-11T10:56:11.700Z,29.00
2019-03-11T10:57:22.896Z,30.50
2019-03-11T10:58:34.088Z,30.90
2019-03-11T10:59:45.289Z,31.14
2019-03-11T11:00:57.004Z,32.61
2019-03-11T11:02:08.249Z,33.70
2019-03-11T11:03:19.643Z,34.80
2019-03-11T11:04:30.901Z,34.64
2019-03-11T11:05:42.171Z,34.83
2019-03-11T11:06:53.445Z,35.47
2019-03-11T11:08:04.745Z,35.37
2019-03-11T11:09:16.034Z,34.49
2019-03-11T11:10:27.323Z,34.19
2019-03-11T11:11:38.625Z,35.17
2019-03-11T11:12:50.438Z,36.19
2019-03-11T11:14:01.757Z,37.14
2019-03-11T11:15:13.093Z,37.54
2019-03-11T11:16:24.426Z,37.32
2019-03-11T11:17:35.764Z,37.04
2019-03-11T11:18:47.092Z,35.47
2019-03-11T11:20:03.357Z,33.30
2019-03-11T11:21:09.678Z,33.32
2019-03-11T11:22:20.958Z,34.05
2019-03-11T11:23:32.207Z,34.30
2019-03-11T11:24:43.442Z,33.80
2019-03-11T11:25:54.658Z,33.68
2019-03-11T11:27:05.860Z,33.25
2019-03-11T11:28:17.064Z,33.89
2019-03-11T11:29:29.243Z,35.28
2019-03-11T11:30:40.424Z,36.95
2019-03-11T11:31:51.612Z,37.79
2019-03-11T11:33:02.827Z,38.02
2019-03-11T11:34:14.024Z,35.84
2019-03-11T11:35:25.251Z,33.61
2019-03-11T11:36:36.473Z,33.00
2019-03-11T11:37:47.711Z,33.09
2019-03-11T11:38:58.952Z,33.02
2019-03-11T11:40:10.514Z,32.90
2019-03-11T11:41:21.789Z,32.92
2019-03-11T11:42:33.076Z,33.14
2019-03-11T11:43:44.386Z,33.24
2019-03-11T11:44:55.695Z,33.36
2019-03-11T11:46:07.015Z,33.26
2019-03-11T11:47:18.361Z,32.80
2019-03-11T11:48:29.703Z,32.23
2019-03-11T11:49:41.050Z,32.44
2019-03-11T11:50:52.401Z,32.55
2019-03-11T11:52:03.756Z,32.16
2019-03-11T11:53:15.133Z,31.47
2019-03-11T11:54:26.524Z,31.06
2019-03-11T11:55:38.884Z,31.18
2019-03-11T11:56:50.251Z,31.39
2019-03-11T11:58:01.643Z,32.14
2019-03-11T11:59:13.059Z,32.86
2019-03-11T12:00:24.403Z,33.37
2019-03-11T12:01:35.792Z,33.59
2019-03-11T12:02:47.196Z,33.72
2019-03-11T12:03:58.615Z,33.62
2019-03-11T12:05:10.027Z,33.53
2019-03-11T12:06:21.448Z,33.47
2019-03-11T12:07:32.940Z,33.00
2019-03-11T12:08:44.317Z,32.80
2019-03-11T12:09:55.746Z,32.51
2019-03-11T12:11:07.176Z,32.26
2019-03-11T12:12:18.603Z,32.26
2019-03-11T12:13:30.034Z,32.39
2019-03-11T12:14:41.464Z,32.58
2019-03-11T12:15:52.894Z,32.66
2019-03-11T12:17:04.342Z,32.91
2019-03-11T12:18:15.782Z,33.13
2019-03-11T12:19:27.237Z,33.46
2019-03-11T12:20:38.679Z,33.49
2019-03-11T12:21:50.142Z,33.51
2019-03-11T12:23:01.609Z,33.61
2019-03-11T12:24:13.084Z,33.54
2019-03-11T12:25:24.584Z,33.47
2019-03-11T12:26:36.045Z,33.21
2019-03-11T12:27:53.666Z,32.58
2019-03-11T12:28:58.998Z,31.59
2019-03-11T12:30:10.489Z,29.98
2019-03-11T12:31:22.016Z,28.43
2019-03-11T12:32:33.457Z,27.07
2019-03-11T12:33:44.936Z,25.92
2019-03-11T12:34:56.443Z,25.08
2019-03-11T12:36:07.917Z,24.53
2019-03-11T12:37:19.392Z,24.13
2019-03-11T12:38:30.863Z,23.86
2019-03-11T12:39:42.330Z,23.77
2019-03-11T12:40:53.784Z,23.87
2019-03-11T12:42:05.235Z,24.18
2019-03-11T12:43:17.696Z,24.52
2019-03-11T12:44:29.148Z,24.70
2019-03-11T12:45:40.604Z,24.75
2019-03-11T12:46:52.049Z,24.74
2019-03-11T12:48:03.639Z,24.29
2019-03-11T12:49:15.076Z,23.90
2019-03-11T12:50:26.610Z,23.95
2019-03-11T12:51:48.902Z,24.04
2019-03-11T12:52:49.447Z,23.97
2019-03-11T12:54:00.844Z,23.25
2019-03-11T12:55:12.232Z,22.04
2019-03-11T12:56:23.608Z,20.65
2019-03-11T12:57:34.955Z,19.04
2019-03-11T12:58:46.276Z,17.58
2019-03-11T12:59:57.595Z,16.44
2019-03-11T13:01:08.867Z,16.25
2019-03-11T13:02:20.134Z,17.11
2019-03-11T13:03:31.405Z,18.65
2019-03-11T13:04:42.676Z,20.05
2019-03-11T13:05:53.967Z,21.05
2019-03-11T13:07:05.270Z,21.72
2019-03-11T13:08:16.561Z,22.36
2019-03-11T13:09:27.862Z,23.04
2019-03-11T13:10:39.180Z,23.75
2019-03-11T13:11:50.497Z,24.25
2019-03-11T13:13:01.827Z,24.63
2019-03-11T13:14:13.157Z,25.09
2019-03-11T13:15:24.497Z,24.24
2019-03-11T13:16:35.834Z,23.58
2019-03-11T13:17:47.162Z,22.81
2019-03-11T13:18:58.488Z,21.62
2019-03-11T13:20:09.792Z,20.16
2019-03-11T13:21:21.091Z,18.59
2019-03-11T13:22:32.354Z,17.31
2019-03-11T13:23:43.605Z,16.21
2019-03-11T13:24:54.850Z,15.39
2019-03-11T13:26:06.063Z,14.70
2019-03-11T13:27:17.273Z,14.11
2019-03-11T13:28:29.063Z,13.61
2019-03-11T13:29:39.634Z,13.82
2019-03-11T13:30:50.802Z,14.50
2019-03-11T13:32:01.973Z,14.57
2019-03-11T13:33:13.128Z,14.06
2019-03-11T13:34:24.265Z,13.28
2019-03-11T13:35:35.400Z,12.39
2019-03-11T13:36:46.524Z,11.54
2019-03-11T13:37:57.622Z,10.83
2019-03-11T13:39:08.718Z,10.31
2019-03-11T13:40:19.785Z,10.13
2019-03-11T13:41:30.848Z,10.05
2019-03-11T13:42:41.911Z,10.53
2019-03-11T13:43:52.976Z,11.71
2019-03-11T13:45:04.062Z,13.12
2019-03-11T13:46:15.111Z,14.41
2019-03-11T13:47:26.203Z,15.50
2019-03-11T13:48:37.306Z,16.38
2019-03-11T13:49:48.412Z,17.14
2019-03-11T13:50:59.541Z,17.69
2019-03-11T13:52:10.688Z,18.15
2019-03-11T13:53:22.321Z,18.62
2019-03-11T13:54:33.638Z,19.03
2019-03-11T13:55:44.806Z,19.42
2019-03-11T13:56:56.006Z,19.68
2019-03-11T13:58:07.207Z,19.88
2019-03-11T13:59:18.401Z,20.11
2019-03-11T14:00:29.660Z,20.32
2019-03-11T14:01:40.823Z,20.36
2019-03-11T14:02:52.053Z,20.35
2019-03-11T14:04:03.279Z,20.36
2019-03-11T14:05:14.511Z,20.45
2019-03-11T14:06:25.755Z,20.56
2019-03-11T14:07:37.013Z,20.67
2019-03-11T14:08:48.259Z,20.67
2019-03-11T14:09:59.509Z,20.37
2019-03-11T14:11:11.947Z,20.00
2019-03-11T14:12:23.185Z,19.17
2019-03-11T14:13:34.923Z,18.37
2019-03-11T14:14:46.138Z,18.02
2019-03-11T14:15:57.395Z,17.75
2019-03-11T14:17:08.573Z,16.95
2019-03-11T14:18:19.765Z,15.96
2019-03-11T14:19:30.938Z,15.00
2019-03-11T14:20:42.100Z,14.11
2019-03-11T14:21:55.314Z,13.43
2019-03-11T14:23:04.380Z,13.25
2019-03-11T14:24:16.002Z,13.48
2019-03-11T14:25:27.120Z,13.71
2019-03-11T14:26:38.246Z,14.34
2019-03-11T14:27:49.368Z,15.05
2019-03-11T14:29:00.488Z,15.71
2019-03-11T14:30:11.614Z,16.33
2019-03-11T14:31:24.230Z,16.80
2019-03-11T14:32:35.363Z,17.27
2019-03-11T14:33:46.511Z,17.77
2019-03-11T14:34:57.662Z,18.21
2019-03-11T14:36:09.299Z,18.59
2019-03-11T14:37:20.455Z,18.96
2019-03-11T14:38:31.663Z,19.20
2019-03-11T14:39:42.833Z,19.35
2019-03-11T14:40:53.999Z,19.46
2019-03-11T14:42:05.186Z,19.71
2019-03-11T14:43:16.365Z,19.92
2019-03-11T14:44:27.552Z,19.96
2019-03-11T14:45:38.730Z,19.97
2019-03-11T14:46:49.914Z,19.84
2019-03-11T14:48:01.092Z,19.65
2019-03-11T14:49:12.281Z,19.34
2019-03-11T14:50:23.630Z,18.92
2019-03-11T14:51:34.816Z,18.56
2019-03-11T14:52:45.992Z,18.05
2019-03-11T14:53:57.182Z,17.20
2019-03-11T14:55:08.339Z,16.30
2019-03-11T14:56:19.640Z,15.71
2019-03-11T14:57:30.772Z,15.07
2019-03-11T14:58:41.896Z,14.12
2019-03-11T14:59:53.009Z,13.19
2019-03-11T15:01:04.102Z,12.45
2019-03-11T15:02:15.689Z,11.92
2019-03-11T15:03:26.749Z,11.37
2019-03-11T15:04:37.847Z,10.88
2019-03-11T15:05:48.835Z,10.55
2019-03-11T15:07:01.350Z,10.25
2019-03-11T15:08:12.827Z,10.02
2019-03-11T15:09:23.850Z,9.77
2019-03-11T15:10:35.844Z,9.53
2019-03-11T15:11:47.320Z,9.41
2019-03-11T15:12:58.815Z,9.33
2019-03-11T15:14:09.264Z,9.47
2019-03-11T15:15:20.734Z,9.84
2019-03-11T15:15:51.332Z,9.95
2019-03-11T15:17:02.271Z,9.98
2019-03-11T15:18:13.222Z,9.82
2019-03-11T15:19:25.150Z,9.65
2019-03-11T15:20:36.080Z,9.47
2019-03-11T15:21:48.490Z,9.28
2019-03-11T15:23:07.512Z,9.08
2019-03-11T15:24:11.305Z,8.88
2019-03-11T15:25:22.697Z,8.69
2019-03-11T15:26:33.633Z,8.51
2019-03-11T15:27:44.517Z,8.38
2019-03-11T15:28:55.893Z,8.32
2019-03-11T15:30:06.774Z,8.24
2019-03-11T15:31:17.685Z,8.19
2019-03-11T15:32:28.575Z,8.17